createdAt,value
2023-02-22T00:01:19.299Z,98127.44
2023-02-22T00:05:22.899Z,98135.55
2023-02-22T00:09:46.734Z,98139.40
2023-02-22T00:14:10.608Z,98138.23
2023-02-22T00:18:35.534Z,98130.75
2023-02-22T00:22:59.404Z,98133.22
2023-02-22T00:27:45.187Z,98132.45
2023-02-22T00:32:09.294Z,98138.02
2023-02-22T00:36:33.334Z,98140.34
2023-02-22T00:40:57.267Z,98147.63
2023-02-22T00:45:21.250Z,98154.90
2023-02-22T00:49:45.134Z,98152.61
2023-02-22T00:54:09.200Z,98141.73
2023-02-22T00:58:33.152Z,98145.61
2023-02-22T01:02:58.223Z,98141.02
2023-02-22T01:07:22.228Z,98139.52
2023-02-22T01:11:46.194Z,98145.17
2023-02-22T01:16:10.079Z,98150.84
2023-02-22T01:20:34.090Z,98149.59
2023-02-22T01:24:57.982Z,98156.35
2023-02-22T01:29:21.211Z,98157.73
2023-02-22T01:33:45.295Z,98161.83
2023-02-22T01:38:09.176Z,98157.03
2023-02-22T01:42:33.159Z,98155.50
2023-02-22T01:46:59.680Z,98155.10
2023-02-22T01:51:29.441Z,98162.09
2023-02-22T01:55:53.339Z,98164.67
2023-02-22T02:00:17.137Z,98169.98
2023-02-22T02:04:41.134Z,98164.88
2023-02-22T02:09:26.112Z,98159.61
2023-02-22T02:13:50.039Z,98163.70
2023-02-22T02:18:13.896Z,98164.80
2023-02-22T02:22:43.696Z,98161.77
2023-02-22T02:27:19.742Z,98158.98
2023-02-22T02:31:53.008Z,98159.96
2023-02-22T02:35:53.152Z,98160.00
2023-02-22T02:40:17.199Z,98159.88
2023-02-22T02:44:41.423Z,98158.80
2023-02-22T02:49:05.017Z,98150.64
2023-02-22T02:53:27.866Z,98143.58
2023-02-22T02:57:48.136Z,98145.40
2023-02-22T03:02:12.104Z,98147.35
2023-02-22T03:06:44.847Z,98143.46
2023-02-22T03:11:23.410Z,98149.16
2023-02-22T03:16:08.541Z,98148.71
2023-02-22T03:20:39.389Z,98150.11
2023-02-22T03:24:57.912Z,98146.08
2023-02-22T03:29:21.849Z,98150.27
2023-02-22T03:33:45.811Z,98156.41
2023-02-22T03:38:09.747Z,98158.38
2023-02-22T03:42:34.445Z,98164.23
2023-02-22T03:46:58.478Z,98172.95
2023-02-22T03:51:22.718Z,98170.40
2023-02-22T03:55:46.978Z,98178.09
2023-02-22T04:00:11.846Z,98185.81
2023-02-22T04:04:17.134Z,98193.14
2023-02-22T04:08:34.430Z,98197.41
2023-02-22T04:12:58.275Z,98203.40
2023-02-22T04:17:23.186Z,98211.13
2023-02-22T04:21:47.063Z,98209.07
2023-02-22T04:26:04.465Z,98206.50
2023-02-22T04:30:28.438Z,98204.88
2023-02-22T04:34:52.496Z,98202.33
2023-02-22T04:39:16.583Z,98205.98
2023-02-22T04:43:40.975Z,98202.36
2023-02-22T04:48:10.701Z,98198.84
2023-02-22T04:52:34.629Z,98198.52
2023-02-22T04:56:59.903Z,98197.05
2023-02-22T05:01:23.835Z,98205.54
2023-02-22T05:05:47.891Z,98207.10
2023-02-22T05:10:11.828Z,98207.13
2023-02-22T05:14:28.221Z,98204.54
2023-02-22T05:18:52.209Z,98208.30
2023-02-22T05:23:16.042Z,98215.92
2023-02-22T05:27:41.163Z,98217.69
2023-02-22T05:32:05.217Z,98215.11
2023-02-22T05:36:29.252Z,98214.73
2023-02-22T05:40:53.135Z,98225.23
2023-02-22T05:45:17.055Z,98225.70
2023-02-22T05:49:41.343Z,98226.42
2023-02-22T05:54:05.271Z,98224.11
2023-02-22T05:58:29.678Z,98232.14
2023-02-22T06:02:53.571Z,98237.48
2023-02-22T06:07:18.863Z,98236.33
2023-02-22T06:11:42.884Z,98239.06
2023-02-22T06:16:06.972Z,98247.42
2023-02-22T06:20:30.874Z,98253.90
2023-02-22T06:24:47.254Z,98260.13
2023-02-22T06:29:11.451Z,98262.34
2023-02-22T06:33:35.492Z,98262.15
2023-02-22T06:38:01.535Z,98270.20
2023-02-22T06:42:07.931Z,98272.70
2023-02-22T06:46:32.020Z,98269.25
2023-02-22T06:51:04.632Z,98272.03
2023-02-22T06:55:28.557Z,98273.86
2023-02-22T06:59:52.493Z,98277.23
2023-02-22T07:04:16.600Z,98271.83
2023-02-22T07:08:40.501Z,98274.08
2023-02-22T07:13:04.655Z,98276.02
2023-02-22T07:17:21.243Z,98276.64
2023-02-22T07:21:46.239Z,98281.30
2023-02-22T07:26:10.093Z,98275.28
2023-02-22T07:30:34.475Z,98269.52
2023-02-22T07:34:58.518Z,98268.48
2023-02-22T07:39:23.548Z,98264.39
2023-02-22T07:43:59.450Z,98263.27
2023-02-22T07:48:23.265Z,98262.82
2023-02-22T07:52:47.905Z,98257.59
2023-02-22T07:57:11.852Z,98252.05
2023-02-22T08:01:29.223Z,98249.70
2023-02-22T08:05:53.186Z,98248.81
2023-02-22T08:10:18.079Z,98250.44
2023-02-22T08:14:42.068Z,98248.17
2023-02-22T08:19:06.342Z,98245.55
2023-02-22T08:23:30.247Z,98245.60
2023-02-22T08:27:49.853Z,98248.86
2023-02-22T08:32:13.967Z,98248.90
2023-02-22T08:36:30.616Z,98251.03
2023-02-22T08:40:53.906Z,98251.44
2023-02-22T08:45:06.804Z,98250.78
2023-02-22T08:49:30.969Z,98254.02
2023-02-22T08:53:54.864Z,98257.98
2023-02-22T08:58:18.932Z,98263.85
2023-02-22T09:02:42.774Z,98262.08
2023-02-22T09:07:07.041Z,98257.69
2023-02-22T09:11:30.879Z,98261.70
2023-02-22T09:15:45.099Z,98265.29
2023-02-22T09:20:09.193Z,98266.47
2023-02-22T09:24:26.372Z,98268.18
2023-02-22T09:28:51.447Z,98269.30
2023-02-22T09:33:15.487Z,98273.04
2023-02-22T09:37:38.111Z,98266.25
2023-02-22T09:42:08.029Z,98269.17
2023-02-22T09:46:50.088Z,98266.34
2023-02-22T09:51:17.378Z,98268.60
2023-02-22T09:55:47.562Z,98269.20
2023-02-22T10:00:11.011Z,98273.52
2023-02-22T10:04:40.518Z,98267.92
2023-02-22T10:09:04.438Z,98262.33
2023-02-22T10:13:34.128Z,98259.89
2023-02-22T10:18:22.307Z,98256.21
2023-02-22T10:22:58.541Z,98249.80
2023-02-22T10:27:25.318Z,98248.25
2023-02-22T10:31:52.255Z,98247.90
2023-02-22T10:36:19.602Z,98248.77
2023-02-22T10:40:44.606Z,98249.60
2023-02-22T10:45:08.560Z,98242.30
2023-02-22T10:49:32.543Z,98249.96
2023-02-22T10:54:01.541Z,98249.14
2023-02-22T10:58:25.502Z,98252.02
2023-02-22T11:02:49.504Z,98247.70
2023-02-22T11:07:19.337Z,98238.88
2023-02-22T11:11:43.186Z,98233.71
2023-02-22T11:16:24.557Z,98228.63
2023-02-22T11:20:48.515Z,98226.10
2023-02-22T11:25:13.449Z,98223.33
2023-02-22T11:29:37.430Z,98216.94
2023-02-22T11:34:01.473Z,98214.85
2023-02-22T11:38:34.546Z,98209.02
2023-02-22T11:42:58.468Z,98209.13
2023-02-22T11:47:22.392Z,98211.25
2023-02-22T11:51:55.244Z,98211.84
2023-02-22T11:56:36.848Z,98208.88
2023-02-22T12:01:05.638Z,98205.55
2023-02-22T12:05:32.731Z,98197.89
2023-02-22T12:09:59.550Z,98193.94
2023-02-22T12:14:29.488Z,98190.23
2023-02-22T12:18:55.996Z,98179.39
2023-02-22T12:23:35.294Z,98178.77
2023-02-22T12:28:00.266Z,98177.45
2023-02-22T12:32:27.006Z,98176.38
2023-02-22T12:36:51.187Z,98175.18
2023-02-22T12:41:23.922Z,98172.18
2023-02-22T12:45:47.891Z,98165.95
2023-02-22T12:50:13.325Z,98162.11
2023-02-22T12:54:17.957Z,98162.81
2023-02-22T12:58:50.709Z,98160.43
2023-02-22T13:03:26.539Z,98159.67
2023-02-22T13:07:50.435Z,98152.46
2023-02-22T13:12:14.490Z,98152.33
2023-02-22T13:16:59.751Z,98154.10
2023-02-22T13:21:22.249Z,98152.84
2023-02-22T13:25:58.371Z,98151.32
2023-02-22T13:30:22.423Z,98153.16
2023-02-22T13:34:55.416Z,98156.14
2023-02-22T13:39:35.491Z,98156.23
2023-02-22T13:44:03.906Z,98154.89
2023-02-22T13:48:52.476Z,98153.36
2023-02-22T13:53:16.436Z,98155.26
2023-02-22T13:57:41.738Z,98153.35
2023-02-22T14:02:26.080Z,98152.95
2023-02-22T14:06:51.942Z,98152.80
2023-02-22T14:11:17.325Z,98154.23
2023-02-22T14:15:51.298Z,98158.48
2023-02-22T14:20:18.046Z,98158.83
2023-02-22T14:24:47.755Z,98162.89
2023-02-22T14:29:14.229Z,98163.61
2023-02-22T14:33:41.249Z,98162.31
2023-02-22T14:38:09.638Z,98162.39
2023-02-22T14:42:36.366Z,98164.03
2023-02-22T14:47:00.361Z,98164.56
2023-02-22T14:51:27.346Z,98165.91
2023-02-22T14:55:59.223Z,98168.29
2023-02-22T15:00:41.161Z,98167.03
2023-02-22T15:05:18.053Z,98164.96
2023-02-22T15:10:07.724Z,98163.10
2023-02-22T15:14:32.630Z,98160.88
2023-02-22T15:18:59.115Z,98160.55
2023-02-22T15:23:23.160Z,98161.13
2023-02-22T15:27:47.223Z,98159.25
2023-02-22T15:32:17.342Z,98159.32
2023-02-22T15:36:41.389Z,98156.73
2023-02-22T15:41:17.741Z,98155.20
2023-02-22T15:45:21.658Z,98164.27
2023-02-22T15:49:48.246Z,98164.33
2023-02-22T15:54:27.579Z,98168.77
2023-02-22T15:58:44.959Z,98162.77
2023-02-22T16:03:17.770Z,98166.54
2023-02-22T16:07:42.107Z,98171.01
2023-02-22T16:12:14.939Z,98171.93
2023-02-22T16:16:45.104Z,98176.64
2023-02-22T16:21:12.052Z,98178.61
2023-02-22T16:25:35.987Z,98186.88
2023-02-22T16:29:59.036Z,98191.16
2023-02-22T16:34:22.968Z,98191.43
2023-02-22T16:38:49.785Z,98194.98
2023-02-22T16:43:17.088Z,98196.04
2023-02-22T16:47:41.068Z,98196.42
2023-02-22T16:52:07.835Z,98200.04
2023-02-22T16:56:31.757Z,98206.73
2023-02-22T17:00:57.117Z,98212.29
2023-02-22T17:05:20.518Z,98211.19
2023-02-22T17:09:45.117Z,98216.39
2023-02-22T17:14:09.067Z,98216.64
2023-02-22T17:18:32.980Z,98225.34
2023-02-22T17:22:57.204Z,98232.45
2023-02-22T17:27:21.054Z,98237.77
2023-02-22T17:31:28.361Z,98240.27
2023-02-22T17:35:53.966Z,98242.52
2023-02-22T17:40:17.718Z,98246.83
2023-02-22T17:44:41.696Z,98245.36
2023-02-22T17:49:05.780Z,98245.76
2023-02-22T17:53:32.697Z,98246.23
2023-02-22T17:57:56.744Z,98250.60
2023-02-22T18:02:27.340Z,98253.45
2023-02-22T18:06:41.271Z,98255.54
2023-02-22T18:11:05.375Z,98260.49
2023-02-22T18:15:12.364Z,98258.31
2023-02-22T18:19:39.613Z,98260.27
2023-02-22T18:24:23.739Z,98262.14
2023-02-22T18:28:47.696Z,98259.77
2023-02-22T18:33:11.543Z,98262.31
2023-02-22T18:37:35.601Z,98261.23
2023-02-22T18:42:02.580Z,98262.38
2023-02-22T18:46:26.562Z,98258.98
2023-02-22T18:50:50.597Z,98264.70
2023-02-22T18:55:14.681Z,98271.59
2023-02-22T18:59:39.622Z,98269.31
2023-02-22T19:04:03.371Z,98274.69
2023-02-22T19:08:27.345Z,98276.61
2023-02-22T19:12:53.639Z,98270.20
2023-02-22T19:17:10.366Z,98270.98
2023-02-22T19:21:37.255Z,98271.17
2023-02-22T19:25:40.978Z,98271.23
2023-02-22T19:30:05.062Z,98269.34
2023-02-22T19:34:27.763Z,98274.84
2023-02-22T19:39:00.266Z,98276.39
2023-02-22T19:43:25.211Z,98281.49
2023-02-22T19:47:49.185Z,98288.42
2023-02-22T19:52:13.435Z,98289.98
2023-02-22T19:56:37.703Z,98290.59
2023-02-22T20:01:01.657Z,98291.05
2023-02-22T20:05:25.777Z,98292.51
2023-02-22T20:09:49.475Z,98292.35
2023-02-22T20:14:14.533Z,98296.65
2023-02-22T20:18:38.514Z,98300.07
2023-02-22T20:23:02.425Z,98296.46
2023-02-22T20:27:26.504Z,98298.27
2023-02-22T20:31:52.238Z,98297.55
2023-02-22T20:36:17.575Z,98299.48
2023-02-22T20:40:41.511Z,98299.40
2023-02-22T20:45:19.285Z,98301.31
2023-02-22T20:49:43.129Z,98299.05
2023-02-22T20:54:07.031Z,98304.52
2023-02-22T20:58:31.349Z,98310.85
2023-02-22T21:02:57.291Z,98306.95
2023-02-22T21:07:24.244Z,98313.80
2023-02-22T21:11:48.302Z,98311.58
2023-02-22T21:16:12.272Z,98317.95
2023-02-22T21:20:35.060Z,98319.48
2023-02-22T21:24:52.439Z,98327.27
2023-02-22T21:29:16.038Z,98320.81
2023-02-22T21:33:41.094Z,98320.89
2023-02-22T21:37:56.640Z,98317.80
2023-02-22T21:42:21.624Z,98317.81
2023-02-22T21:46:29.553Z,98318.99
2023-02-22T21:50:46.342Z,98320.44
2023-02-22T21:55:10.199Z,98320.30
2023-02-22T21:59:36.783Z,98326.19
2023-02-22T22:03:43.016Z,98326.05
2023-02-22T22:08:07.316Z,98327.46
2023-02-22T22:12:39.227Z,98329.41
2023-02-22T22:17:16.508Z,98330.86
2023-02-22T22:21:40.436Z,98326.52
2023-02-22T22:26:05.336Z,98327.49
2023-02-22T22:30:29.291Z,98327.20
2023-02-22T22:34:52.999Z,98331.33
2023-02-22T22:39:16.988Z,98333.64
2023-02-22T22:43:40.957Z,98333.58
2023-02-22T22:48:06.006Z,98334.70
2023-02-22T22:52:30.002Z,98337.48
2023-02-22T22:56:56.524Z,98337.41
2023-02-22T23:01:21.249Z,98340.45
2023-02-22T23:05:45.326Z,98343.01
2023-02-22T23:10:09.059Z,98346.58
2023-02-22T23:14:32.919Z,98348.13
2023-02-22T23:18:57.799Z,98345.47
2023-02-22T23:23:06.731Z,98345.58
2023-02-22T23:27:30.802Z,98341.45
2023-02-22T23:31:54.839Z,98340.90
2023-02-22T23:36:18.833Z,98343.98
2023-02-22T23:40:42.735Z,98346.88
2023-02-22T23:45:06.742Z,98349.80
2023-02-22T23:49:22.842Z,98351.68
2023-02-22T23:53:46.769Z,98352.80
2023-02-22T23:58:03.474Z,98348.96
